This is the latest recevied weather packets stored in our database for station/object CE3MLB. If no packets are shown the sender has not sent any weather packets the latest 10 day(s).
| Time | Temp. | Humidity | Pressure | Rain* | Wind** | Luminosity | Snow |
|---|---|---|---|---|---|---|---|
| 1777867082 | 5° C | 95% | 1005.2 hPa | 0 mm | - | 0 W/m² | - |
| 1777863482 | 6.11° C | 93% | 1005 hPa | 0 mm | - | 0 W/m² | - |
| 1777859877 | 7.78° C | 87% | 1005.2 hPa | 0 mm | - | 0 W/m² | - |
| 1777856273 | 10° C | 81% | 1005.3 hPa | 0 mm | - | 0 W/m² | - |
| 1777852672 | 10.56° C | 76% | 1005 hPa | 0 mm | - | 0 W/m² | - |
| 1777849072 | 12.22° C | 67% | 1004.6 hPa | 0 mm | - | 0 W/m² | - |
| 1777845470 | 17.22° C | 51% | 1004.5 hPa | 0 mm | - | 3 W/m² | - |
| 1777841868 | 20.56° C | 40% | 1003.5 hPa | 0 mm | - | 29 W/m² | - |
| 1777838269 | 22.78° C | 44% | 1003.5 hPa | 0 mm | - | 111 W/m² | - |
| 1777834668 | 26.11° C | 28% | 1002.9 hPa | 0 mm | - | 302 W/m² | - |
| 1777831063 | 27.78° C | 40% | 1003.5 hPa | 0 mm | - | 420 W/m² | - |
| 1777827460 | 23.89° C | 47% | 1004.3 hPa | 0 mm | - | 456 W/m² | - |
| 1777823855 | 22.22° C | 55% | 1005.1 hPa | 0 mm | - | 429 W/m² | - |
| 1777820251 | 18.89° C | 62% | 1005.6 hPa | 0 mm | - | 262 W/m² | - |
| 1777816650 | 16.11° C | 66% | 1005.4 hPa | 0 mm | - | 140 W/m² | - |
| 1777813045 | 10.56° C | 93% | 1005.4 hPa | 0 mm | - | 61 W/m² | - |
| 1777809445 | 1.67° C | 99% | 1004.7 hPa | 0 mm | - | 15 W/m² | - |
| 1777805846 | 1.67° C | 99% | 1004.1 hPa | 0 mm | - | 0 W/m² | - |
| 1777802241 | 2.22° C | 99% | 1003.8 hPa | 0 mm | - | 0 W/m² | - |
| 1777798639 | 2.78° C | 99% | 1004.2 hPa | 0 mm | - | 0 W/m² | - |
| 1777795034 | 3.33° C | 99% | 1003.9 hPa | 0 mm | - | 0 W/m² | - |
| 1777791432 | 5° C | 99% | 1004.5 hPa | 0 mm | - | 0 W/m² | - |
| 1777787830 | 5° C | 99% | 1004.6 hPa | 0 mm | - | 0 W/m² | - |
| 1777784227 | 6.11° C | 97% | 1004.4 hPa | 0 mm | - | 0 W/m² | - |
| 1777780625 | 6.67° C | 98% | 1003.8 hPa | 0 mm | - | 0 W/m² | - |
* Rain latest hour (hover to see other rain measurements)
** Current wind speed in m/s (hover to see current wind gust speed)